Huvudsida
METAR-TAF:

METAR-TAF

Flygplatser :

Pekings internationella flygplats

Peking, Kina

latitud: 39-56N, longitud: 116-17E, höjd: 55 m

Aktuellt väderrapport

Denna rapport gjordes för 38 minuter sedan, klockan 00:00 UTC
Vind 6 kt från nord
Temperatur -11°C
Fuktighet 61%
Tryck 1036 hPa
Sikt 10 km eller mer
Inga moln under 1 500 m eller inga cumulonimbus

METAR: ZBAA 100000Z 35003MPS CAVOK M11/M17 Q1036 NOSIG

Tid: 08:38 (00:38 UTC)

Väderprognos

Denna rapport gjordes för 3 timmar och 18 minuter sedan, klockan 21:20 UTC
Prognos gäller från 10 kl. 00 UTC till 10 kl. 24 UTC
Vind 8 kt från nord/nordväst
Sikt: 6000 m

TAF: ZBAA 092120Z 1000/1024 33004MPS 6000 NSC TXM03/07Z TNM10/21Z

Aktuella väderrapporter och prognoser från 4000 flygplatser (METAR- och TAF-rapporter).

De tillgängliga stationerna syns som gula och röda prickar på kartan.

För musen över prickarna för att se namnen på stationerna.

Klicka sedan för att få väderrapporter och prognoser.

För att ändra kartan: Klicka på de gröna knapparna med ett svart kors på för att zooma in; den gröna knappen med ett streck på för att zooma ut; eller på de gröna pilarna för angränsande kartor.


METAR-TAF: